sensor_id;sensor_type;location;lat;lon;timestamp;temperature;humidity
27567;DHT22;15006;48.584;9.186;2022-07-29T00:01:27;15.70;99.90
27567;DHT22;15006;48.584;9.186;2022-07-29T00:03:53;15.70;99.90
27567;DHT22;15006;48.584;9.186;2022-07-29T00:06:19;15.70;99.90
27567;DHT22;15006;48.584;9.186;2022-07-29T00:08:46;15.60;99.90
27567;DHT22;15006;48.584;9.186;2022-07-29T00:11:13;15.60;99.90
27567;DHT22;15006;48.584;9.186;2022-07-29T00:13:39;15.60;99.90
27567;DHT22;15006;48.584;9.186;2022-07-29T00:16:05;15.60;99.90
27567;DHT22;15006;48.584;9.186;2022-07-29T00:18:31;15.60;99.90
27567;DHT22;15006;48.584;9.186;2022-07-29T00:20:57;15.60;99.90
27567;DHT22;15006;48.584;9.186;2022-07-29T00:23:23;15.50;99.90
27567;DHT22;15006;48.584;9.186;2022-07-29T00:25:50;15.50;99.90
27567;DHT22;15006;48.584;9.186;2022-07-29T00:28:16;15.50;99.90
27567;DHT22;15006;48.584;9.186;2022-07-29T00:30:42;15.40;99.90
27567;DHT22;15006;48.584;9.186;2022-07-29T00:33:09;15.40;99.90
27567;DHT22;15006;48.584;9.186;2022-07-29T00:35:35;15.40;99.90
27567;DHT22;15006;48.584;9.186;2022-07-29T00:38:14;15.30;99.90
27567;DHT22;15006;48.584;9.186;2022-07-29T00:40:43;15.30;99.90
27567;DHT22;15006;48.584;9.186;2022-07-29T00:43:11;15.20;99.90
27567;DHT22;15006;48.584;9.186;2022-07-29T00:45:37;15.20;99.90
27567;DHT22;15006;48.584;9.186;2022-07-29T00:48:04;15.20;99.90
27567;DHT22;15006;48.584;9.186;2022-07-29T00:50:31;15.20;99.90
27567;DHT22;15006;48.584;9.186;2022-07-29T00:52:58;15.10;99.90
27567;DHT22;15006;48.584;9.186;2022-07-29T00:55:24;15.10;99.90
27567;DHT22;15006;48.584;9.186;2022-07-29T00:57:52;15.00;99.90
27567;DHT22;15006;48.584;9.186;2022-07-29T01:00:22;15.00;99.90
27567;DHT22;15006;48.584;9.186;2022-07-29T01:02:51;15.00;99.90
27567;DHT22;15006;48.584;9.186;2022-07-29T01:05:21;15.00;99.90
27567;DHT22;15006;48.584;9.186;2022-07-29T01:07:54;15.00;99.90
27567;DHT22;15006;48.584;9.186;2022-07-29T01:10:23;15.00;99.90
27567;DHT22;15006;48.584;9.186;2022-07-29T01:12:52;15.00;99.90
27567;DHT22;15006;48.584;9.186;2022-07-29T01:15:20;15.00;99.90
27567;DHT22;15006;48.584;9.186;2022-07-29T01:18:05;15.00;99.90
27567;DHT22;15006;48.584;9.186;2022-07-29T01:30:05;14.90;99.90
27567;DHT22;15006;48.584;9.186;2022-07-29T01:32:34;15.00;99.90
27567;DHT22;15006;48.584;9.186;2022-07-29T01:37:50;15.00;99.90
27567;DHT22;15006;48.584;9.186;2022-07-29T01:40:36;14.90;99.90
27567;DHT22;15006;48.584;9.186;2022-07-29T01:43:11;14.90;99.90
27567;DHT22;15006;48.584;9.186;2022-07-29T01:45:48;15.00;99.90
27567;DHT22;15006;48.584;9.186;2022-07-29T01:48:53;14.90;99.90
27567;DHT22;15006;48.584;9.186;2022-07-29T01:51:29;14.90;99.90
27567;DHT22;15006;48.584;9.186;2022-07-29T01:54:04;14.90;99.90
27567;DHT22;15006;48.584;9.186;2022-07-29T01:56:35;14.90;99.90
27567;DHT22;15006;48.584;9.186;2022-07-29T01:59:04;14.90;99.90
27567;DHT22;15006;48.584;9.186;2022-07-29T02:01:33;14.90;99.90
27567;DHT22;15006;48.584;9.186;2022-07-29T02:04:05;14.90;99.90
27567;DHT22;15006;48.584;9.186;2022-07-29T02:06:33;14.90;99.90
27567;DHT22;15006;48.584;9.186;2022-07-29T02:09:02;14.90;99.90
27567;DHT22;15006;48.584;9.186;2022-07-29T02:11:30;14.80;99.90
27567;DHT22;15006;48.584;9.186;2022-07-29T02:13:57;14.90;99.90
27567;DHT22;15006;48.584;9.186;2022-07-29T02:16:26;14.90;99.90
27567;DHT22;15006;48.584;9.186;2022-07-29T02:18:55;14.90;99.90
27567;DHT22;15006;48.584;9.186;2022-07-29T02:21:25;14.90;99.90
27567;DHT22;15006;48.584;9.186;2022-07-29T02:23:52;14.90;99.90
27567;DHT22;15006;48.584;9.186;2022-07-29T02:26:23;14.80;99.90
27567;DHT22;15006;48.584;9.186;2022-07-29T02:28:52;14.80;99.90
27567;DHT22;15006;48.584;9.186;2022-07-29T02:31:22;14.80;99.90
27567;DHT22;15006;48.584;9.186;2022-07-29T02:33:51;14.80;99.90
27567;DHT22;15006;48.584;9.186;2022-07-29T02:36:18;14.80;99.90
27567;DHT22;15006;48.584;9.186;2022-07-29T02:38:45;14.80;99.90
27567;DHT22;15006;48.584;9.186;2022-07-29T02:41:24;14.70;99.90
27567;DHT22;15006;48.584;9.186;2022-07-29T02:44:01;14.70;99.90
27567;DHT22;15006;48.584;9.186;2022-07-29T02:46:33;14.70;99.90
27567;DHT22;15006;48.584;9.186;2022-07-29T02:49:23;14.70;99.90
27567;DHT22;15006;48.584;9.186;2022-07-29T02:52:13;14.60;99.90
27567;DHT22;15006;48.584;9.186;2022-07-29T02:54:56;14.60;99.90
27567;DHT22;15006;48.584;9.186;2022-07-29T02:57:32;14.50;99.90
27567;DHT22;15006;48.584;9.186;2022-07-29T03:00:03;14.50;99.90
27567;DHT22;15006;48.584;9.186;2022-07-29T03:02:35;14.50;99.90
27567;DHT22;15006;48.584;9.186;2022-07-29T03:05:06;14.40;99.90
27567;DHT22;15006;48.584;9.186;2022-07-29T03:07:34;14.40;99.90
27567;DHT22;15006;48.584;9.186;2022-07-29T03:10:02;14.40;99.90
27567;DHT22;15006;48.584;9.186;2022-07-29T03:12:30;14.30;99.90
27567;DHT22;15006;48.584;9.186;2022-07-29T03:14:56;14.30;99.90
27567;DHT22;15006;48.584;9.186;2022-07-29T03:17:23;14.30;99.90
27567;DHT22;15006;48.584;9.186;2022-07-29T03:19:49;14.30;99.90
27567;DHT22;15006;48.584;9.186;2022-07-29T03:22:15;14.30;99.90
27567;DHT22;15006;48.584;9.186;2022-07-29T03:24:41;14.30;99.90
27567;DHT22;15006;48.584;9.186;2022-07-29T03:27:07;14.30;99.90
27567;DHT22;15006;48.584;9.186;2022-07-29T03:29:33;14.20;99.90
27567;DHT22;15006;48.584;9.186;2022-07-29T03:32:04;14.20;99.90
27567;DHT22;15006;48.584;9.186;2022-07-29T03:34:31;14.20;99.90
27567;DHT22;15006;48.584;9.186;2022-07-29T03:36:57;14.10;99.90
27567;DHT22;15006;48.584;9.186;2022-07-29T03:39:26;14.10;99.90
27567;DHT22;15006;48.584;9.186;2022-07-29T03:41:55;14.10;99.90
27567;DHT22;15006;48.584;9.186;2022-07-29T03:44:23;14.00;99.90
27567;DHT22;15006;48.584;9.186;2022-07-29T03:46:52;14.00;99.90
27567;DHT22;15006;48.584;9.186;2022-07-29T03:49:20;13.90;99.90
27567;DHT22;15006;48.584;9.186;2022-07-29T03:51:47;13.90;99.90
27567;DHT22;15006;48.584;9.186;2022-07-29T03:54:13;13.80;99.90
27567;DHT22;15006;48.584;9.186;2022-07-29T03:56:42;13.80;99.90
27567;DHT22;15006;48.584;9.186;2022-07-29T03:59:13;13.80;99.90
27567;DHT22;15006;48.584;9.186;2022-07-29T04:01:41;13.80;99.90
27567;DHT22;15006;48.584;9.186;2022-07-29T04:04:07;13.70;99.90
27567;DHT22;15006;48.584;9.186;2022-07-29T04:06:38;13.70;99.90
27567;DHT22;15006;48.584;9.186;2022-07-29T04:09:05;13.70;99.90
27567;DHT22;15006;48.584;9.186;2022-07-29T04:11:31;13.70;99.90
27567;DHT22;15006;48.584;9.186;2022-07-29T04:13:57;13.70;99.90
27567;DHT22;15006;48.584;9.186;2022-07-29T04:16:23;13.60;99.90
27567;DHT22;15006;48.584;9.186;2022-07-29T04:18:49;13.60;99.90
27567;DHT22;15006;48.584;9.186;2022-07-29T04:21:15;13.70;99.90
27567;DHT22;15006;48.584;9.186;2022-07-29T04:23:41;13.70;99.90
27567;DHT22;15006;48.584;9.186;2022-07-29T04:26:11;13.70;99.90
27567;DHT22;15006;48.584;9.186;2022-07-29T04:28:37;13.70;99.90
27567;DHT22;15006;48.584;9.186;2022-07-29T04:31:05;13.80;99.90
27567;DHT22;15006;48.584;9.186;2022-07-29T04:33:31;13.80;99.90
27567;DHT22;15006;48.584;9.186;2022-07-29T04:35:56;13.70;99.90
27567;DHT22;15006;48.584;9.186;2022-07-29T04:38:23;13.80;99.90
27567;DHT22;15006;48.584;9.186;2022-07-29T04:40:48;13.80;99.90
27567;DHT22;15006;48.584;9.186;2022-07-29T04:43:15;13.80;99.90
27567;DHT22;15006;48.584;9.186;2022-07-29T04:45:41;13.80;99.90
27567;DHT22;15006;48.584;9.186;2022-07-29T04:48:07;13.80;99.90
27567;DHT22;15006;48.584;9.186;2022-07-29T04:50:33;13.80;99.90
27567;DHT22;15006;48.584;9.186;2022-07-29T04:52:59;13.80;99.90
27567;DHT22;15006;48.584;9.186;2022-07-29T04:55:25;13.90;99.90
27567;DHT22;15006;48.584;9.186;2022-07-29T04:57:51;13.90;99.90
27567;DHT22;15006;48.584;9.186;2022-07-29T05:00:17;13.90;99.90
27567;DHT22;15006;48.584;9.186;2022-07-29T05:02:44;14.00;99.90
27567;DHT22;15006;48.584;9.186;2022-07-29T05:05:10;14.00;99.90
27567;DHT22;15006;48.584;9.186;2022-07-29T05:07:36;14.10;99.90
27567;DHT22;15006;48.584;9.186;2022-07-29T05:10:03;14.10;99.90
27567;DHT22;15006;48.584;9.186;2022-07-29T05:12:29;14.20;99.90
27567;DHT22;15006;48.584;9.186;2022-07-29T05:14:55;14.30;99.90
27567;DHT22;15006;48.584;9.186;2022-07-29T05:17:21;14.40;99.90
27567;DHT22;15006;48.584;9.186;2022-07-29T05:19:47;14.50;99.90
27567;DHT22;15006;48.584;9.186;2022-07-29T05:22:13;14.60;99.90
27567;DHT22;15006;48.584;9.186;2022-07-29T05:24:39;14.70;99.90
27567;DHT22;15006;48.584;9.186;2022-07-29T05:27:06;14.80;99.90
27567;DHT22;15006;48.584;9.186;2022-07-29T05:29:32;15.00;99.90
27567;DHT22;15006;48.584;9.186;2022-07-29T05:31:58;15.00;99.90
27567;DHT22;15006;48.584;9.186;2022-07-29T05:34:24;15.10;99.90
27567;DHT22;15006;48.584;9.186;2022-07-29T05:36:50;15.20;99.90
27567;DHT22;15006;48.584;9.186;2022-07-29T05:39:16;15.30;99.90
27567;DHT22;15006;48.584;9.186;2022-07-29T05:41:42;15.40;99.90
27567;DHT22;15006;48.584;9.186;2022-07-29T05:44:08;15.50;99.90
27567;DHT22;15006;48.584;9.186;2022-07-29T05:46:34;15.60;99.90
27567;DHT22;15006;48.584;9.186;2022-07-29T05:49:00;15.70;99.90
27567;DHT22;15006;48.584;9.186;2022-07-29T05:51:26;15.70;99.90
27567;DHT22;15006;48.584;9.186;2022-07-29T05:53:52;15.80;99.90
27567;DHT22;15006;48.584;9.186;2022-07-29T05:56:18;15.90;99.90
27567;DHT22;15006;48.584;9.186;2022-07-29T05:58:44;16.00;99.90
27567;DHT22;15006;48.584;9.186;2022-07-29T06:01:10;16.10;99.90
27567;DHT22;15006;48.584;9.186;2022-07-29T06:03:36;16.10;99.90
27567;DHT22;15006;48.584;9.186;2022-07-29T06:06:03;16.20;99.90
27567;DHT22;15006;48.584;9.186;2022-07-29T06:08:31;16.20;99.90
27567;DHT22;15006;48.584;9.186;2022-07-29T06:11:00;16.20;99.90
27567;DHT22;15006;48.584;9.186;2022-07-29T06:13:26;16.20;99.90
27567;DHT22;15006;48.584;9.186;2022-07-29T06:15:52;16.20;99.90
27567;DHT22;15006;48.584;9.186;2022-07-29T06:18:18;16.10;99.90
27567;DHT22;15006;48.584;9.186;2022-07-29T06:20:46;16.10;99.90
27567;DHT22;15006;48.584;9.186;2022-07-29T06:23:12;16.10;99.90
27567;DHT22;15006;48.584;9.186;2022-07-29T06:25:40;16.20;99.90
27567;DHT22;15006;48.584;9.186;2022-07-29T06:28:06;16.20;99.90
27567;DHT22;15006;48.584;9.186;2022-07-29T06:30:32;16.20;99.90
27567;DHT22;15006;48.584;9.186;2022-07-29T06:32:58;16.30;99.90
27567;DHT22;15006;48.584;9.186;2022-07-29T06:35:25;16.40;99.90
27567;DHT22;15006;48.584;9.186;2022-07-29T06:37:51;16.40;99.90
27567;DHT22;15006;48.584;9.186;2022-07-29T06:40:17;16.50;99.90
27567;DHT22;15006;48.584;9.186;2022-07-29T06:43:02;16.60;99.90
27567;DHT22;15006;48.584;9.186;2022-07-29T06:45:28;16.70;99.90
27567;DHT22;15006;48.584;9.186;2022-07-29T06:47:54;16.80;99.90
27567;DHT22;15006;48.584;9.186;2022-07-29T06:50:20;17.00;99.90
27567;DHT22;15006;48.584;9.186;2022-07-29T06:52:47;17.10;99.90
27567;DHT22;15006;48.584;9.186;2022-07-29T06:55:13;17.20;99.90
27567;DHT22;15006;48.584;9.186;2022-07-29T06:57:39;17.40;99.90
27567;DHT22;15006;48.584;9.186;2022-07-29T07:00:06;17.50;99.90
27567;DHT22;15006;48.584;9.186;2022-07-29T07:02:32;17.60;99.90
27567;DHT22;15006;48.584;9.186;2022-07-29T07:04:58;17.80;99.90
27567;DHT22;15006;48.584;9.186;2022-07-29T07:07:25;18.00;99.90
27567;DHT22;15006;48.584;9.186;2022-07-29T07:09:51;18.10;99.90
27567;DHT22;15006;48.584;9.186;2022-07-29T07:12:17;18.20;99.90
27567;DHT22;15006;48.584;9.186;2022-07-29T07:14:43;18.20;99.90
27567;DHT22;15006;48.584;9.186;2022-07-29T07:17:09;18.30;99.90
27567;DHT22;15006;48.584;9.186;2022-07-29T07:19:35;18.30;99.80
27567;DHT22;15006;48.584;9.186;2022-07-29T07:22:01;18.40;98.70
27567;DHT22;15006;48.584;9.186;2022-07-29T07:24:27;18.40;98.40
27567;DHT22;15006;48.584;9.186;2022-07-29T07:26:53;18.40;98.30
27567;DHT22;15006;48.584;9.186;2022-07-29T07:29:19;18.40;97.90
27567;DHT22;15006;48.584;9.186;2022-07-29T07:31:45;18.40;98.40
27567;DHT22;15006;48.584;9.186;2022-07-29T07:34:11;18.30;98.60
27567;DHT22;15006;48.584;9.186;2022-07-29T07:36:37;18.40;98.30
27567;DHT22;15006;48.584;9.186;2022-07-29T07:39:03;18.40;99.10
27567;DHT22;15006;48.584;9.186;2022-07-29T07:41:30;18.50;99.90
27567;DHT22;15006;48.584;9.186;2022-07-29T07:43:56;18.60;98.50
27567;DHT22;15006;48.584;9.186;2022-07-29T07:46:22;18.70;98.00
27567;DHT22;15006;48.584;9.186;2022-07-29T07:48:48;18.80;97.10
27567;DHT22;15006;48.584;9.186;2022-07-29T07:51:14;18.80;96.20
27567;DHT22;15006;48.584;9.186;2022-07-29T07:53:40;18.90;94.50
27567;DHT22;15006;48.584;9.186;2022-07-29T07:56:06;19.00;95.10
27567;DHT22;15006;48.584;9.186;2022-07-29T07:58:32;19.10;95.50
27567;DHT22;15006;48.584;9.186;2022-07-29T08:01:00;19.20;96.10
27567;DHT22;15006;48.584;9.186;2022-07-29T08:03:26;19.30;95.50
27567;DHT22;15006;48.584;9.186;2022-07-29T08:05:52;19.40;95.10
27567;DHT22;15006;48.584;9.186;2022-07-29T08:08:20;19.50;94.90
27567;DHT22;15006;48.584;9.186;2022-07-29T08:10:46;19.70;94.90
27567;DHT22;15006;48.584;9.186;2022-07-29T08:13:22;19.80;94.20
27567;DHT22;15006;48.584;9.186;2022-07-29T08:15:50;20.00;93.60
27567;DHT22;15006;48.584;9.186;2022-07-29T08:18:31;20.20;93.70
27567;DHT22;15006;48.584;9.186;2022-07-29T08:20:58;20.30;92.20
27567;DHT22;15006;48.584;9.186;2022-07-29T08:23:24;20.40;92.30
27567;DHT22;15006;48.584;9.186;2022-07-29T08:25:52;20.50;93.00
27567;DHT22;15006;48.584;9.186;2022-07-29T08:28:18;20.70;92.00
27567;DHT22;15006;48.584;9.186;2022-07-29T08:30:44;20.80;91.30
27567;DHT22;15006;48.584;9.186;2022-07-29T08:33:10;21.00;92.00
27567;DHT22;15006;48.584;9.186;2022-07-29T08:35:36;21.10;90.30
27567;DHT22;15006;48.584;9.186;2022-07-29T08:38:04;21.30;89.30
27567;DHT22;15006;48.584;9.186;2022-07-29T08:40:30;21.40;87.60
27567;DHT22;15006;48.584;9.186;2022-07-29T08:42:56;21.50;87.80
27567;DHT22;15006;48.584;9.186;2022-07-29T08:45:23;21.70;88.20
27567;DHT22;15006;48.584;9.186;2022-07-29T08:47:49;21.80;88.30
27567;DHT22;15006;48.584;9.186;2022-07-29T08:50:15;22.00;86.20
27567;DHT22;15006;48.584;9.186;2022-07-29T08:52:41;22.20;84.20
27567;DHT22;15006;48.584;9.186;2022-07-29T08:55:08;22.50;80.60
27567;DHT22;15006;48.584;9.186;2022-07-29T08:57:35;22.60;79.50
27567;DHT22;15006;48.584;9.186;2022-07-29T09:00:04;22.70;79.10
27567;DHT22;15006;48.584;9.186;2022-07-29T09:02:36;22.90;78.50
27567;DHT22;15006;48.584;9.186;2022-07-29T09:05:05;23.10;76.50
27567;DHT22;15006;48.584;9.186;2022-07-29T09:07:32;23.30;77.20
27567;DHT22;15006;48.584;9.186;2022-07-29T09:09:59;23.40;74.60
27567;DHT22;15006;48.584;9.186;2022-07-29T09:12:26;23.60;73.20
27567;DHT22;15006;48.584;9.186;2022-07-29T09:14:52;23.70;72.40
27567;DHT22;15006;48.584;9.186;2022-07-29T09:17:18;23.90;72.10
27567;DHT22;15006;48.584;9.186;2022-07-29T09:20:20;24.00;72.50
27567;DHT22;15006;48.584;9.186;2022-07-29T09:22:51;24.10;67.80
27567;DHT22;15006;48.584;9.186;2022-07-29T09:25:32;24.30;70.00
27567;DHT22;15006;48.584;9.186;2022-07-29T09:30:32;24.60;65.90
27567;DHT22;15006;48.584;9.186;2022-07-29T09:33:00;24.80;69.40
27567;DHT22;15006;48.584;9.186;2022-07-29T09:35:29;24.90;66.40
27567;DHT22;15006;48.584;9.186;2022-07-29T09:37:56;25.10;65.40
27567;DHT22;15006;48.584;9.186;2022-07-29T09:40:24;25.10;63.90
27567;DHT22;15006;48.584;9.186;2022-07-29T09:42:52;25.20;65.00
27567;DHT22;15006;48.584;9.186;2022-07-29T09:45:34;25.20;66.20
27567;DHT22;15006;48.584;9.186;2022-07-29T09:48:21;25.30;60.10
27567;DHT22;15006;48.584;9.186;2022-07-29T09:50:49;25.30;60.20
27567;DHT22;15006;48.584;9.186;2022-07-29T09:53:32;25.20;61.60
27567;DHT22;15006;48.584;9.186;2022-07-29T09:55:59;25.10;56.20
27567;DHT22;15006;48.584;9.186;2022-07-29T09:58:26;25.00;60.70
27567;DHT22;15006;48.584;9.186;2022-07-29T10:00:54;24.80;60.40
27567;DHT22;15006;48.584;9.186;2022-07-29T10:03:21;24.70;60.00
27567;DHT22;15006;48.584;9.186;2022-07-29T10:06:10;24.60;60.10
27567;DHT22;15006;48.584;9.186;2022-07-29T10:08:41;24.40;59.20
27567;DHT22;15006;48.584;9.186;2022-07-29T10:11:18;24.40;62.00
27567;DHT22;15006;48.584;9.186;2022-07-29T10:13:46;24.50;60.70
27567;DHT22;15006;48.584;9.186;2022-07-29T10:16:14;24.50;61.40
27567;DHT22;15006;48.584;9.186;2022-07-29T10:18:42;24.50;60.20
27567;DHT22;15006;48.584;9.186;2022-07-29T10:21:09;24.60;60.80
27567;DHT22;15006;48.584;9.186;2022-07-29T10:23:36;24.60;60.70
27567;DHT22;15006;48.584;9.186;2022-07-29T10:26:03;24.80;62.60
27567;DHT22;15006;48.584;9.186;2022-07-29T10:28:31;25.00;60.90
27567;DHT22;15006;48.584;9.186;2022-07-29T10:31:04;25.20;60.90
27567;DHT22;15006;48.584;9.186;2022-07-29T10:33:51;25.50;59.30
27567;DHT22;15006;48.584;9.186;2022-07-29T10:36:32;25.90;60.70
27567;DHT22;15006;48.584;9.186;2022-07-29T10:42:19;26.80;59.90
27567;DHT22;15006;48.584;9.186;2022-07-29T10:44:48;27.10;57.00
27567;DHT22;15006;48.584;9.186;2022-07-29T10:49:58;27.20;54.20
27567;DHT22;15006;48.584;9.186;2022-07-29T10:52:26;27.20;53.40
27567;DHT22;15006;48.584;9.186;2022-07-29T10:58:19;26.80;50.20
27567;DHT22;15006;48.584;9.186;2022-07-29T11:00:53;26.70;52.50
27567;DHT22;15006;48.584;9.186;2022-07-29T11:06:12;26.70;51.40
27567;DHT22;15006;48.584;9.186;2022-07-29T11:08:38;26.70;53.60
27567;DHT22;15006;48.584;9.186;2022-07-29T11:13:49;26.50;49.90
27567;DHT22;15006;48.584;9.186;2022-07-29T11:16:18;26.50;51.80
27567;DHT22;15006;48.584;9.186;2022-07-29T11:21:42;26.20;51.00
27567;DHT22;15006;48.584;9.186;2022-07-29T11:24:32;26.30;53.70
27567;DHT22;15006;48.584;9.186;2022-07-29T11:27:13;26.30;50.10
27567;DHT22;15006;48.584;9.186;2022-07-29T11:30:10;26.30;50.60
27567;DHT22;15006;48.584;9.186;2022-07-29T11:32:41;26.10;50.70
27567;DHT22;15006;48.584;9.186;2022-07-29T11:35:23;25.80;51.20
27567;DHT22;15006;48.584;9.186;2022-07-29T11:38:23;25.40;51.30
27567;DHT22;15006;48.584;9.186;2022-07-29T11:43:55;24.40;52.60
27567;DHT22;15006;48.584;9.186;2022-07-29T11:46:45;24.00;55.10
27567;DHT22;15006;48.584;9.186;2022-07-29T11:49:24;23.60;57.00
27567;DHT22;15006;48.584;9.186;2022-07-29T11:51:53;23.30;58.20
27567;DHT22;15006;48.584;9.186;2022-07-29T11:54:26;23.20;60.80
27567;DHT22;15006;48.584;9.186;2022-07-29T11:56:57;23.10;60.50
27567;DHT22;15006;48.584;9.186;2022-07-29T11:59:24;23.20;63.80
27567;DHT22;15006;48.584;9.186;2022-07-29T12:05:50;23.60;62.10
27567;DHT22;15006;48.584;9.186;2022-07-29T12:08:22;23.90;65.00
27567;DHT22;15006;48.584;9.186;2022-07-29T12:10:52;24.20;64.30
27567;DHT22;15006;48.584;9.186;2022-07-29T12:13:19;24.50;63.60
27567;DHT22;15006;48.584;9.186;2022-07-29T12:15:56;24.80;64.00
27567;DHT22;15006;48.584;9.186;2022-07-29T12:18:24;25.10;62.00
27567;DHT22;15006;48.584;9.186;2022-07-29T12:21:00;25.40;61.10
27567;DHT22;15006;48.584;9.186;2022-07-29T12:23:33;25.60;58.30
27567;DHT22;15006;48.584;9.186;2022-07-29T12:26:04;25.70;59.30
27567;DHT22;15006;48.584;9.186;2022-07-29T12:28:37;25.70;58.20
27567;DHT22;15006;48.584;9.186;2022-07-29T12:31:04;25.70;57.00
27567;DHT22;15006;48.584;9.186;2022-07-29T12:33:30;25.60;56.80
27567;DHT22;15006;48.584;9.186;2022-07-29T12:35:58;25.40;56.40
27567;DHT22;15006;48.584;9.186;2022-07-29T12:38:26;25.20;55.60
27567;DHT22;15006;48.584;9.186;2022-07-29T12:40:53;24.90;55.10
27567;DHT22;15006;48.584;9.186;2022-07-29T12:43:21;24.60;55.50
27567;DHT22;15006;48.584;9.186;2022-07-29T12:45:53;24.20;56.20
27567;DHT22;15006;48.584;9.186;2022-07-29T12:48:37;23.80;56.60
27567;DHT22;15006;48.584;9.186;2022-07-29T12:51:05;23.50;58.10
27567;DHT22;15006;48.584;9.186;2022-07-29T12:53:33;23.20;59.90
27567;DHT22;15006;48.584;9.186;2022-07-29T12:55:59;23.00;60.90
27567;DHT22;15006;48.584;9.186;2022-07-29T12:58:40;23.00;62.30
27567;DHT22;15006;48.584;9.186;2022-07-29T13:01:15;23.00;62.60
27567;DHT22;15006;48.584;9.186;2022-07-29T13:06:36;23.30;62.50
27567;DHT22;15006;48.584;9.186;2022-07-29T13:11:38;23.80;59.70
27567;DHT22;15006;48.584;9.186;2022-07-29T13:14:07;23.90;57.20
27567;DHT22;15006;48.584;9.186;2022-07-29T13:16:35;24.00;57.90
27567;DHT22;15006;48.584;9.186;2022-07-29T13:19:10;24.10;58.60
27567;DHT22;15006;48.584;9.186;2022-07-29T13:21:37;24.10;58.00
27567;DHT22;15006;48.584;9.186;2022-07-29T13:24:08;24.10;57.20
27567;DHT22;15006;48.584;9.186;2022-07-29T13:26:34;24.00;56.30
27567;DHT22;15006;48.584;9.186;2022-07-29T13:29:00;23.90;55.80
27567;DHT22;15006;48.584;9.186;2022-07-29T13:31:26;23.70;55.70
27567;DHT22;15006;48.584;9.186;2022-07-29T13:33:52;23.40;56.20
27567;DHT22;15006;48.584;9.186;2022-07-29T13:36:18;23.00;58.10
27567;DHT22;15006;48.584;9.186;2022-07-29T13:38:44;22.60;59.40
27567;DHT22;15006;48.584;9.186;2022-07-29T13:41:10;22.20;58.90
27567;DHT22;15006;48.584;9.186;2022-07-29T13:43:37;21.70;59.50
27567;DHT22;15006;48.584;9.186;2022-07-29T13:46:03;21.30;60.80
27567;DHT22;15006;48.584;9.186;2022-07-29T13:48:29;20.90;64.90
27567;DHT22;15006;48.584;9.186;2022-07-29T13:50:55;20.60;68.20
27567;DHT22;15006;48.584;9.186;2022-07-29T13:53:22;20.40;70.00
27567;DHT22;15006;48.584;9.186;2022-07-29T13:55:48;20.30;71.10
27567;DHT22;15006;48.584;9.186;2022-07-29T13:58:13;20.20;71.40
27567;DHT22;15006;48.584;9.186;2022-07-29T14:00:40;20.10;72.70
27567;DHT22;15006;48.584;9.186;2022-07-29T14:03:05;20.10;73.80
27567;DHT22;15006;48.584;9.186;2022-07-29T14:05:32;20.10;74.70
27567;DHT22;15006;48.584;9.186;2022-07-29T14:07:57;20.10;74.90
27567;DHT22;15006;48.584;9.186;2022-07-29T14:10:23;20.10;74.90
27567;DHT22;15006;48.584;9.186;2022-07-29T14:12:49;20.10;74.40
27567;DHT22;15006;48.584;9.186;2022-07-29T14:15:15;20.20;75.30
27567;DHT22;15006;48.584;9.186;2022-07-29T14:17:41;20.30;74.70
27567;DHT22;15006;48.584;9.186;2022-07-29T14:20:07;20.30;74.70
27567;DHT22;15006;48.584;9.186;2022-07-29T14:22:34;20.40;74.10
27567;DHT22;15006;48.584;9.186;2022-07-29T14:25:00;20.40;74.50
27567;DHT22;15006;48.584;9.186;2022-07-29T14:27:26;20.50;74.50
27567;DHT22;15006;48.584;9.186;2022-07-29T14:29:52;20.50;75.50
27567;DHT22;15006;48.584;9.186;2022-07-29T14:32:18;20.60;76.30
27567;DHT22;15006;48.584;9.186;2022-07-29T14:34:44;20.70;77.50
27567;DHT22;15006;48.584;9.186;2022-07-29T14:37:10;20.70;76.40
27567;DHT22;15006;48.584;9.186;2022-07-29T14:39:36;20.70;75.00
27567;DHT22;15006;48.584;9.186;2022-07-29T14:42:03;20.80;74.20
27567;DHT22;15006;48.584;9.186;2022-07-29T14:44:29;20.80;74.60
27567;DHT22;15006;48.584;9.186;2022-07-29T14:47:00;20.80;74.90
27567;DHT22;15006;48.584;9.186;2022-07-29T14:49:27;20.80;74.60
27567;DHT22;15006;48.584;9.186;2022-07-29T14:51:53;20.80;75.20
27567;DHT22;15006;48.584;9.186;2022-07-29T14:54:19;20.80;74.90
27567;DHT22;15006;48.584;9.186;2022-07-29T14:56:44;20.80;75.20
27567;DHT22;15006;48.584;9.186;2022-07-29T14:59:12;20.80;74.10
27567;DHT22;15006;48.584;9.186;2022-07-29T15:01:38;20.70;73.60
27567;DHT22;15006;48.584;9.186;2022-07-29T15:04:04;20.80;73.20
27567;DHT22;15006;48.584;9.186;2022-07-29T15:06:30;20.70;72.40
27567;DHT22;15006;48.584;9.186;2022-07-29T15:08:56;20.60;72.00
27567;DHT22;15006;48.584;9.186;2022-07-29T15:11:22;20.50;71.70
27567;DHT22;15006;48.584;9.186;2022-07-29T15:13:48;20.50;71.10
27567;DHT22;15006;48.584;9.186;2022-07-29T15:16:14;20.40;70.80
27567;DHT22;15006;48.584;9.186;2022-07-29T15:18:40;20.30;70.90
27567;DHT22;15006;48.584;9.186;2022-07-29T15:21:07;20.20;71.90
27567;DHT22;15006;48.584;9.186;2022-07-29T15:23:33;20.10;71.90
27567;DHT22;15006;48.584;9.186;2022-07-29T15:26:03;20.10;72.40
27567;DHT22;15006;48.584;9.186;2022-07-29T15:28:29;20.00;73.60
27567;DHT22;15006;48.584;9.186;2022-07-29T15:30:55;20.00;73.70
27567;DHT22;15006;48.584;9.186;2022-07-29T15:33:21;20.00;74.30
27567;DHT22;15006;48.584;9.186;2022-07-29T15:35:48;20.00;73.80
27567;DHT22;15006;48.584;9.186;2022-07-29T15:38:15;20.00;73.00
27567;DHT22;15006;48.584;9.186;2022-07-29T15:40:41;20.10;73.20
27567;DHT22;15006;48.584;9.186;2022-07-29T15:43:09;20.10;74.20
27567;DHT22;15006;48.584;9.186;2022-07-29T15:45:40;20.10;74.60
27567;DHT22;15006;48.584;9.186;2022-07-29T15:48:08;20.10;73.40
27567;DHT22;15006;48.584;9.186;2022-07-29T15:50:35;20.10;73.90
27567;DHT22;15006;48.584;9.186;2022-07-29T15:53:02;20.20;74.90
27567;DHT22;15006;48.584;9.186;2022-07-29T15:55:28;20.20;75.10
27567;DHT22;15006;48.584;9.186;2022-07-29T15:57:54;20.30;76.10
27567;DHT22;15006;48.584;9.186;2022-07-29T16:00:20;20.30;77.00
27567;DHT22;15006;48.584;9.186;2022-07-29T16:02:47;20.30;77.40
27567;DHT22;15006;48.584;9.186;2022-07-29T16:05:14;20.40;76.50
27567;DHT22;15006;48.584;9.186;2022-07-29T16:07:40;20.50;76.60
27567;DHT22;15006;48.584;9.186;2022-07-29T16:10:06;20.50;75.80
27567;DHT22;15006;48.584;9.186;2022-07-29T16:12:33;20.50;75.50
27567;DHT22;15006;48.584;9.186;2022-07-29T16:14:59;20.50;75.40
27567;DHT22;15006;48.584;9.186;2022-07-29T16:17:25;20.50;75.70
27567;DHT22;15006;48.584;9.186;2022-07-29T16:19:52;20.60;75.40
27567;DHT22;15006;48.584;9.186;2022-07-29T16:22:18;20.60;74.30
27567;DHT22;15006;48.584;9.186;2022-07-29T16:24:44;20.70;74.60